sensor_id;sensor_type;location;lat;lon;timestamp;P1;durP1;ratioP1;P2;durP2;ratioP2
23826;SDS011;12094;50.822;4.376;2023-09-19T00:00:43;20.63;;;3.30;;
23826;SDS011;12094;50.822;4.376;2023-09-19T00:03:14;15.85;;;2.47;;
23826;SDS011;12094;50.822;4.376;2023-09-19T00:05:43;18.27;;;3.50;;
23826;SDS011;12094;50.822;4.376;2023-09-19T00:08:12;11.90;;;2.72;;
23826;SDS011;12094;50.822;4.376;2023-09-19T00:10:40;13.50;;;2.30;;
23826;SDS011;12094;50.822;4.376;2023-09-19T00:13:09;12.93;;;2.58;;
23826;SDS011;12094;50.822;4.376;2023-09-19T00:15:41;15.50;;;2.88;;
23826;SDS011;12094;50.822;4.376;2023-09-19T00:18:18;15.25;;;3.05;;
23826;SDS011;12094;50.822;4.376;2023-09-19T00:20:57;17.15;;;2.40;;
23826;SDS011;12094;50.822;4.376;2023-09-19T00:23:25;13.93;;;2.67;;
23826;SDS011;12094;50.822;4.376;2023-09-19T00:28:29;11.38;;;2.10;;
23826;SDS011;12094;50.822;4.376;2023-09-19T00:30:59;16.08;;;2.50;;
23826;SDS011;12094;50.822;4.376;2023-09-19T00:36:00;19.88;;;3.00;;
23826;SDS011;12094;50.822;4.376;2023-09-19T00:38:30;17.73;;;2.70;;
23826;SDS011;12094;50.822;4.376;2023-09-19T00:40:58;19.88;;;2.92;;
23826;SDS011;12094;50.822;4.376;2023-09-19T00:43:26;18.85;;;3.03;;
23826;SDS011;12094;50.822;4.376;2023-09-19T00:45:56;15.85;;;2.95;;
23826;SDS011;12094;50.822;4.376;2023-09-19T00:48:24;14.52;;;2.72;;
23826;SDS011;12094;50.822;4.376;2023-09-19T00:50:56;15.68;;;2.90;;
23826;SDS011;12094;50.822;4.376;2023-09-19T00:53:30;17.67;;;3.00;;
23826;SDS011;12094;50.822;4.376;2023-09-19T00:55:58;15.85;;;2.60;;
23826;SDS011;12094;50.822;4.376;2023-09-19T00:58:28;16.08;;;2.58;;
23826;SDS011;12094;50.822;4.376;2023-09-19T01:03:27;10.32;;;2.60;;
23826;SDS011;12094;50.822;4.376;2023-09-19T01:05:55;10.90;;;2.53;;
23826;SDS011;12094;50.822;4.376;2023-09-19T01:08:22;19.10;;;2.90;;
23826;SDS011;12094;50.822;4.376;2023-09-19T01:10:51;16.55;;;3.28;;
23826;SDS011;12094;50.822;4.376;2023-09-19T01:16:10;13.15;;;2.13;;
23826;SDS011;12094;50.822;4.376;2023-09-19T01:18:55;15.82;;;3.00;;
23826;SDS011;12094;50.822;4.376;2023-09-19T01:27:22;21.15;;;3.20;;
23826;SDS011;12094;50.822;4.376;2023-09-19T01:30:09;14.98;;;2.95;;
23826;SDS011;12094;50.822;4.376;2023-09-19T01:32:40;18.88;;;2.97;;
23826;SDS011;12094;50.822;4.376;2023-09-19T01:35:10;19.52;;;2.92;;
23826;SDS011;12094;50.822;4.376;2023-09-19T01:37:39;20.92;;;3.03;;
23826;SDS011;12094;50.822;4.376;2023-09-19T01:40:11;16.42;;;2.63;;
23826;SDS011;12094;50.822;4.376;2023-09-19T01:42:54;14.07;;;2.80;;
23826;SDS011;12094;50.822;4.376;2023-09-19T01:45:38;18.45;;;3.53;;
23826;SDS011;12094;50.822;4.376;2023-09-19T01:48:24;14.18;;;2.55;;
23826;SDS011;12094;50.822;4.376;2023-09-19T01:51:08;17.70;;;3.15;;
23826;SDS011;12094;50.822;4.376;2023-09-19T01:53:58;18.67;;;2.80;;
23826;SDS011;12094;50.822;4.376;2023-09-19T01:56:44;13.38;;;2.67;;
23826;SDS011;12094;50.822;4.376;2023-09-19T01:59:21;16.67;;;3.70;;
23826;SDS011;12094;50.822;4.376;2023-09-19T02:01:54;15.30;;;2.83;;
23826;SDS011;12094;50.822;4.376;2023-09-19T02:04:22;15.50;;;3.10;;
23826;SDS011;12094;50.822;4.376;2023-09-19T02:06:49;16.85;;;3.08;;
23826;SDS011;12094;50.822;4.376;2023-09-19T02:09:17;17.48;;;2.97;;
23826;SDS011;12094;50.822;4.376;2023-09-19T02:11:44;15.88;;;2.95;;
23826;SDS011;12094;50.822;4.376;2023-09-19T02:14:11;18.85;;;3.15;;
23826;SDS011;12094;50.822;4.376;2023-09-19T02:16:38;20.23;;;3.20;;
23826;SDS011;12094;50.822;4.376;2023-09-19T02:19:05;18.60;;;2.55;;
23826;SDS011;12094;50.822;4.376;2023-09-19T02:21:34;19.17;;;2.65;;
23826;SDS011;12094;50.822;4.376;2023-09-19T02:24:01;17.13;;;3.20;;
23826;SDS011;12094;50.822;4.376;2023-09-19T02:26:29;15.93;;;3.05;;
23826;SDS011;12094;50.822;4.376;2023-09-19T02:28:56;15.00;;;2.95;;
23826;SDS011;12094;50.822;4.376;2023-09-19T02:31:23;30.60;;;3.55;;
23826;SDS011;12094;50.822;4.376;2023-09-19T02:33:51;21.42;;;3.30;;
23826;SDS011;12094;50.822;4.376;2023-09-19T02:36:20;17.30;;;3.20;;
23826;SDS011;12094;50.822;4.376;2023-09-19T02:38:47;24.77;;;3.60;;
23826;SDS011;12094;50.822;4.376;2023-09-19T02:41:14;18.77;;;3.15;;
23826;SDS011;12094;50.822;4.376;2023-09-19T02:43:41;16.27;;;3.50;;
23826;SDS011;12094;50.822;4.376;2023-09-19T02:46:09;16.25;;;3.28;;
23826;SDS011;12094;50.822;4.376;2023-09-19T02:48:38;19.73;;;2.83;;
23826;SDS011;12094;50.822;4.376;2023-09-19T02:51:05;17.65;;;2.85;;
23826;SDS011;12094;50.822;4.376;2023-09-19T02:53:32;15.13;;;3.75;;
23826;SDS011;12094;50.822;4.376;2023-09-19T02:55:59;14.95;;;3.33;;
23826;SDS011;12094;50.822;4.376;2023-09-19T02:58:27;14.73;;;2.80;;
23826;SDS011;12094;50.822;4.376;2023-09-19T03:00:56;14.73;;;3.00;;
23826;SDS011;12094;50.822;4.376;2023-09-19T03:03:24;19.25;;;3.42;;
23826;SDS011;12094;50.822;4.376;2023-09-19T03:05:51;11.77;;;2.22;;
23826;SDS011;12094;50.822;4.376;2023-09-19T03:08:21;14.25;;;2.83;;
23826;SDS011;12094;50.822;4.376;2023-09-19T03:10:51;14.95;;;2.45;;
23826;SDS011;12094;50.822;4.376;2023-09-19T03:13:19;13.50;;;3.10;;
23826;SDS011;12094;50.822;4.376;2023-09-19T03:15:46;13.82;;;3.00;;
23826;SDS011;12094;50.822;4.376;2023-09-19T03:18:21;20.20;;;3.50;;
23826;SDS011;12094;50.822;4.376;2023-09-19T03:20:53;11.93;;;2.95;;
23826;SDS011;12094;50.822;4.376;2023-09-19T03:23:24;14.32;;;2.60;;
23826;SDS011;12094;50.822;4.376;2023-09-19T03:25:52;16.50;;;3.00;;
23826;SDS011;12094;50.822;4.376;2023-09-19T03:28:20;12.93;;;2.83;;
23826;SDS011;12094;50.822;4.376;2023-09-19T03:30:59;13.15;;;2.38;;
23826;SDS011;12094;50.822;4.376;2023-09-19T03:33:35;11.63;;;2.88;;
23826;SDS011;12094;50.822;4.376;2023-09-19T03:36:03;12.77;;;2.47;;
23826;SDS011;12094;50.822;4.376;2023-09-19T03:38:31;14.35;;;2.60;;
23826;SDS011;12094;50.822;4.376;2023-09-19T03:41:00;18.52;;;3.08;;
23826;SDS011;12094;50.822;4.376;2023-09-19T03:43:29;17.48;;;2.95;;
23826;SDS011;12094;50.822;4.376;2023-09-19T03:46:01;15.07;;;1.98;;
23826;SDS011;12094;50.822;4.376;2023-09-19T03:48:32;17.52;;;3.55;;
23826;SDS011;12094;50.822;4.376;2023-09-19T03:51:01;17.90;;;2.80;;
23826;SDS011;12094;50.822;4.376;2023-09-19T03:53:29;18.10;;;3.00;;
23826;SDS011;12094;50.822;4.376;2023-09-19T03:55:59;19.83;;;3.25;;
23826;SDS011;12094;50.822;4.376;2023-09-19T03:58:29;20.25;;;3.00;;
23826;SDS011;12094;50.822;4.376;2023-09-19T04:00:56;20.83;;;3.17;;
23826;SDS011;12094;50.822;4.376;2023-09-19T04:03:26;16.83;;;3.25;;
23826;SDS011;12094;50.822;4.376;2023-09-19T04:06:01;16.15;;;2.70;;
23826;SDS011;12094;50.822;4.376;2023-09-19T04:08:29;12.70;;;2.42;;
23826;SDS011;12094;50.822;4.376;2023-09-19T04:10:56;18.83;;;3.08;;
23826;SDS011;12094;50.822;4.376;2023-09-19T04:13:25;19.05;;;2.67;;
23826;SDS011;12094;50.822;4.376;2023-09-19T04:15:52;14.00;;;3.42;;
23826;SDS011;12094;50.822;4.376;2023-09-19T04:18:20;21.33;;;3.22;;
23826;SDS011;12094;50.822;4.376;2023-09-19T04:20:50;12.90;;;2.22;;
23826;SDS011;12094;50.822;4.376;2023-09-19T04:23:20;16.95;;;3.10;;
23826;SDS011;12094;50.822;4.376;2023-09-19T04:25:48;13.75;;;2.58;;
23826;SDS011;12094;50.822;4.376;2023-09-19T04:28:15;21.30;;;3.17;;
23826;SDS011;12094;50.822;4.376;2023-09-19T04:30:43;16.38;;;2.92;;
23826;SDS011;12094;50.822;4.376;2023-09-19T04:33:11;16.42;;;2.95;;
23826;SDS011;12094;50.822;4.376;2023-09-19T04:35:40;23.65;;;3.65;;
23826;SDS011;12094;50.822;4.376;2023-09-19T04:38:11;13.68;;;2.13;;
23826;SDS011;12094;50.822;4.376;2023-09-19T04:40:38;11.95;;;2.58;;
23826;SDS011;12094;50.822;4.376;2023-09-19T04:43:06;14.45;;;2.60;;
23826;SDS011;12094;50.822;4.376;2023-09-19T04:45:35;14.25;;;2.95;;
23826;SDS011;12094;50.822;4.376;2023-09-19T04:48:02;18.10;;;2.60;;
23826;SDS011;12094;50.822;4.376;2023-09-19T04:50:29;16.17;;;2.65;;
23826;SDS011;12094;50.822;4.376;2023-09-19T04:52:56;13.05;;;2.65;;
23826;SDS011;12094;50.822;4.376;2023-09-19T04:55:23;20.02;;;2.45;;
23826;SDS011;12094;50.822;4.376;2023-09-19T04:57:50;16.30;;;2.47;;
23826;SDS011;12094;50.822;4.376;2023-09-19T05:00:19;12.18;;;2.22;;
23826;SDS011;12094;50.822;4.376;2023-09-19T05:02:51;18.50;;;2.70;;
23826;SDS011;12094;50.822;4.376;2023-09-19T05:05:20;20.48;;;2.97;;
23826;SDS011;12094;50.822;4.376;2023-09-19T05:07:49;15.95;;;3.05;;
23826;SDS011;12094;50.822;4.376;2023-09-19T05:10:17;16.52;;;2.83;;
23826;SDS011;12094;50.822;4.376;2023-09-19T05:12:45;19.50;;;3.33;;
23826;SDS011;12094;50.822;4.376;2023-09-19T05:15:14;11.05;;;2.17;;
23826;SDS011;12094;50.822;4.376;2023-09-19T05:17:50;11.73;;;1.98;;
23826;SDS011;12094;50.822;4.376;2023-09-19T05:20:22;16.50;;;2.95;;
23826;SDS011;12094;50.822;4.376;2023-09-19T05:23:05;13.10;;;2.15;;
23826;SDS011;12094;50.822;4.376;2023-09-19T05:25:43;14.10;;;2.33;;
23826;SDS011;12094;50.822;4.376;2023-09-19T05:28:10;19.65;;;3.00;;
23826;SDS011;12094;50.822;4.376;2023-09-19T05:30:41;16.65;;;2.40;;
23826;SDS011;12094;50.822;4.376;2023-09-19T05:33:14;17.80;;;3.13;;
23826;SDS011;12094;50.822;4.376;2023-09-19T05:35:42;14.93;;;2.55;;
23826;SDS011;12094;50.822;4.376;2023-09-19T05:38:10;19.83;;;2.67;;
23826;SDS011;12094;50.822;4.376;2023-09-19T05:40:42;17.20;;;3.75;;
23826;SDS011;12094;50.822;4.376;2023-09-19T05:43:09;21.20;;;3.25;;
23826;SDS011;12094;50.822;4.376;2023-09-19T05:45:36;13.52;;;2.50;;
23826;SDS011;12094;50.822;4.376;2023-09-19T05:48:14;16.90;;;2.45;;
23826;SDS011;12094;50.822;4.376;2023-09-19T05:50:43;17.52;;;2.65;;
23826;SDS011;12094;50.822;4.376;2023-09-19T05:53:15;18.02;;;2.72;;
23826;SDS011;12094;50.822;4.376;2023-09-19T05:55:42;11.63;;;2.30;;
23826;SDS011;12094;50.822;4.376;2023-09-19T05:58:11;17.95;;;2.50;;
23826;SDS011;12094;50.822;4.376;2023-09-19T06:00:41;16.30;;;2.70;;
23826;SDS011;12094;50.822;4.376;2023-09-19T06:03:09;15.50;;;3.15;;
23826;SDS011;12094;50.822;4.376;2023-09-19T06:05:38;17.10;;;3.20;;
23826;SDS011;12094;50.822;4.376;2023-09-19T06:08:08;18.13;;;2.65;;
23826;SDS011;12094;50.822;4.376;2023-09-19T06:10:36;14.70;;;2.20;;
23826;SDS011;12094;50.822;4.376;2023-09-19T06:13:03;20.35;;;3.25;;
23826;SDS011;12094;50.822;4.376;2023-09-19T06:15:42;18.77;;;2.83;;
23826;SDS011;12094;50.822;4.376;2023-09-19T06:18:11;21.48;;;3.25;;
23826;SDS011;12094;50.822;4.376;2023-09-19T06:20:46;21.52;;;3.33;;
23826;SDS011;12094;50.822;4.376;2023-09-19T06:23:15;8.57;;;1.65;;
23826;SDS011;12094;50.822;4.376;2023-09-19T06:25:43;11.93;;;2.30;;
23826;SDS011;12094;50.822;4.376;2023-09-19T06:28:11;24.10;;;2.88;;
23826;SDS011;12094;50.822;4.376;2023-09-19T06:30:38;19.17;;;2.80;;
23826;SDS011;12094;50.822;4.376;2023-09-19T06:33:09;22.08;;;2.75;;
23826;SDS011;12094;50.822;4.376;2023-09-19T06:35:38;18.15;;;3.08;;
23826;SDS011;12094;50.822;4.376;2023-09-19T06:38:05;16.85;;;2.95;;
23826;SDS011;12094;50.822;4.376;2023-09-19T06:40:34;22.85;;;3.03;;
23826;SDS011;12094;50.822;4.376;2023-09-19T06:43:03;14.00;;;1.90;;
23826;SDS011;12094;50.822;4.376;2023-09-19T06:45:32;16.67;;;2.80;;
23826;SDS011;12094;50.822;4.376;2023-09-19T06:47:59;20.98;;;2.70;;
23826;SDS011;12094;50.822;4.376;2023-09-19T06:50:30;20.13;;;3.33;;
23826;SDS011;12094;50.822;4.376;2023-09-19T06:52:57;19.52;;;2.78;;
23826;SDS011;12094;50.822;4.376;2023-09-19T06:55:27;13.30;;;2.20;;
23826;SDS011;12094;50.822;4.376;2023-09-19T06:57:55;22.02;;;2.75;;
23826;SDS011;12094;50.822;4.376;2023-09-19T07:00:24;20.05;;;3.17;;
23826;SDS011;12094;50.822;4.376;2023-09-19T07:03:02;17.45;;;2.92;;
23826;SDS011;12094;50.822;4.376;2023-09-19T07:05:34;15.95;;;2.97;;
23826;SDS011;12094;50.822;4.376;2023-09-19T07:08:10;19.70;;;3.05;;
23826;SDS011;12094;50.822;4.376;2023-09-19T07:10:39;22.10;;;3.00;;
23826;SDS011;12094;50.822;4.376;2023-09-19T07:13:17;15.07;;;2.50;;
23826;SDS011;12094;50.822;4.376;2023-09-19T07:15:44;19.05;;;3.17;;
23826;SDS011;12094;50.822;4.376;2023-09-19T07:18:16;15.68;;;3.05;;
23826;SDS011;12094;50.822;4.376;2023-09-19T07:20:46;18.60;;;2.85;;
23826;SDS011;12094;50.822;4.376;2023-09-19T07:23:19;19.40;;;3.80;;
23826;SDS011;12094;50.822;4.376;2023-09-19T07:25:50;14.98;;;2.83;;
23826;SDS011;12094;50.822;4.376;2023-09-19T07:28:17;26.58;;;3.35;;
23826;SDS011;12094;50.822;4.376;2023-09-19T07:30:44;15.85;;;3.20;;
23826;SDS011;12094;50.822;4.376;2023-09-19T07:33:11;17.08;;;2.80;;
23826;SDS011;12094;50.822;4.376;2023-09-19T07:35:38;15.70;;;2.90;;
23826;SDS011;12094;50.822;4.376;2023-09-19T07:38:08;14.18;;;3.15;;
23826;SDS011;12094;50.822;4.376;2023-09-19T07:40:38;15.15;;;2.60;;
23826;SDS011;12094;50.822;4.376;2023-09-19T07:43:06;15.32;;;2.60;;
23826;SDS011;12094;50.822;4.376;2023-09-19T07:45:34;14.32;;;2.13;;
23826;SDS011;12094;50.822;4.376;2023-09-19T07:48:03;15.43;;;2.63;;
23826;SDS011;12094;50.822;4.376;2023-09-19T07:50:33;18.48;;;3.63;;
23826;SDS011;12094;50.822;4.376;2023-09-19T07:53:05;13.18;;;2.55;;
23826;SDS011;12094;50.822;4.376;2023-09-19T07:55:32;14.63;;;2.97;;
23826;SDS011;12094;50.822;4.376;2023-09-19T07:58:01;19.42;;;3.72;;
23826;SDS011;12094;50.822;4.376;2023-09-19T08:00:30;12.93;;;2.88;;
23826;SDS011;12094;50.822;4.376;2023-09-19T08:02:59;14.82;;;2.70;;
23826;SDS011;12094;50.822;4.376;2023-09-19T08:05:34;19.90;;;3.00;;
23826;SDS011;12094;50.822;4.376;2023-09-19T08:08:00;10.63;;;2.70;;
23826;SDS011;12094;50.822;4.376;2023-09-19T08:10:29;21.25;;;3.10;;
23826;SDS011;12094;50.822;4.376;2023-09-19T08:13:01;16.52;;;2.80;;
23826;SDS011;12094;50.822;4.376;2023-09-19T08:15:29;15.15;;;2.65;;
23826;SDS011;12094;50.822;4.376;2023-09-19T08:17:56;13.18;;;3.03;;
23826;SDS011;12094;50.822;4.376;2023-09-19T08:20:23;16.73;;;3.35;;
23826;SDS011;12094;50.822;4.376;2023-09-19T08:22:52;13.85;;;2.47;;
23826;SDS011;12094;50.822;4.376;2023-09-19T08:25:23;12.25;;;3.00;;
23826;SDS011;12094;50.822;4.376;2023-09-19T08:27:53;13.30;;;2.78;;
23826;SDS011;12094;50.822;4.376;2023-09-19T08:30:24;19.27;;;2.70;;
23826;SDS011;12094;50.822;4.376;2023-09-19T08:33:00;17.67;;;3.65;;
23826;SDS011;12094;50.822;4.376;2023-09-19T08:35:28;15.75;;;2.58;;
23826;SDS011;12094;50.822;4.376;2023-09-19T08:37:55;17.77;;;2.63;;
23826;SDS011;12094;50.822;4.376;2023-09-19T08:40:23;17.80;;;3.13;;
23826;SDS011;12094;50.822;4.376;2023-09-19T08:42:53;18.52;;;3.03;;
23826;SDS011;12094;50.822;4.376;2023-09-19T08:45:23;18.83;;;2.78;;
23826;SDS011;12094;50.822;4.376;2023-09-19T08:50:29;9.35;;;2.00;;
23826;SDS011;12094;50.822;4.376;2023-09-19T08:53:00;14.38;;;2.20;;
23826;SDS011;12094;50.822;4.376;2023-09-19T08:55:29;13.32;;;2.63;;
23826;SDS011;12094;50.822;4.376;2023-09-19T08:57:59;18.05;;;3.05;;
23826;SDS011;12094;50.822;4.376;2023-09-19T09:00:29;11.50;;;2.47;;
23826;SDS011;12094;50.822;4.376;2023-09-19T09:02:57;16.17;;;3.10;;
23826;SDS011;12094;50.822;4.376;2023-09-19T09:05:27;20.30;;;3.63;;
23826;SDS011;12094;50.822;4.376;2023-09-19T09:07:54;19.02;;;2.50;;
23826;SDS011;12094;50.822;4.376;2023-09-19T09:10:23;18.75;;;2.55;;
23826;SDS011;12094;50.822;4.376;2023-09-19T09:12:51;17.50;;;2.85;;
23826;SDS011;12094;50.822;4.376;2023-09-19T09:15:21;13.98;;;2.65;;
23826;SDS011;12094;50.822;4.376;2023-09-19T09:17:50;11.35;;;3.05;;
23826;SDS011;12094;50.822;4.376;2023-09-19T09:20:21;15.20;;;3.03;;
23826;SDS011;12094;50.822;4.376;2023-09-19T09:22:51;13.07;;;2.63;;
23826;SDS011;12094;50.822;4.376;2023-09-19T09:25:24;15.88;;;2.38;;
23826;SDS011;12094;50.822;4.376;2023-09-19T09:28:23;13.83;;;2.73;;
23826;SDS011;12094;50.822;4.376;2023-09-19T09:30:51;10.07;;;2.33;;
23826;SDS011;12094;50.822;4.376;2023-09-19T09:33:19;13.13;;;2.33;;
23826;SDS011;12094;50.822;4.376;2023-09-19T09:38:24;13.02;;;2.20;;
23826;SDS011;12094;50.822;4.376;2023-09-19T09:41:11;9.00;;;2.40;;
23826;SDS011;12094;50.822;4.376;2023-09-19T09:43:45;11.10;;;2.40;;
23826;SDS011;12094;50.822;4.376;2023-09-19T09:46:15;11.85;;;2.10;;
23826;SDS011;12094;50.822;4.376;2023-09-19T09:49:23;9.63;;;1.50;;
23826;SDS011;12094;50.822;4.376;2023-09-19T09:52:03;12.57;;;2.35;;
23826;SDS011;12094;50.822;4.376;2023-09-19T09:54:37;12.80;;;2.47;;
23826;SDS011;12094;50.822;4.376;2023-09-19T09:57:10;12.40;;;1.95;;
23826;SDS011;12094;50.822;4.376;2023-09-19T09:59:48;18.08;;;2.42;;
23826;SDS011;12094;50.822;4.376;2023-09-19T10:02:20;9.88;;;2.08;;
23826;SDS011;12094;50.822;4.376;2023-09-19T10:04:56;13.38;;;2.20;;
23826;SDS011;12094;50.822;4.376;2023-09-19T10:11:01;10.60;;;1.95;;
23826;SDS011;12094;50.822;4.376;2023-09-19T10:13:41;8.50;;;1.60;;
23826;SDS011;12094;50.822;4.376;2023-09-19T10:16:10;11.82;;;2.00;;
23826;SDS011;12094;50.822;4.376;2023-09-19T10:18:41;8.55;;;1.95;;
23826;SDS011;12094;50.822;4.376;2023-09-19T10:21:10;9.43;;;1.60;;
23826;SDS011;12094;50.822;4.376;2023-09-19T10:23:38;7.32;;;1.60;;
23826;SDS011;12094;50.822;4.376;2023-09-19T10:26:09;4.07;;;0.75;;
23826;SDS011;12094;50.822;4.376;2023-09-19T10:28:36;12.15;;;2.38;;
23826;SDS011;12094;50.822;4.376;2023-09-19T10:31:06;13.38;;;2.05;;
23826;SDS011;12094;50.822;4.376;2023-09-19T10:33:36;6.03;;;1.63;;
23826;SDS011;12094;50.822;4.376;2023-09-19T10:36:06;7.30;;;1.52;;
23826;SDS011;12094;50.822;4.376;2023-09-19T10:38:36;8.35;;;1.60;;
23826;SDS011;12094;50.822;4.376;2023-09-19T10:41:07;8.73;;;1.53;;
23826;SDS011;12094;50.822;4.376;2023-09-19T10:43:37;9.82;;;1.92;;
23826;SDS011;12094;50.822;4.376;2023-09-19T10:46:09;9.30;;;2.15;;
23826;SDS011;12094;50.822;4.376;2023-09-19T10:48:39;10.75;;;1.88;;
23826;SDS011;12094;50.822;4.376;2023-09-19T10:51:12;8.88;;;1.48;;
23826;SDS011;12094;50.822;4.376;2023-09-19T10:56:43;6.20;;;1.13;;
23826;SDS011;12094;50.822;4.376;2023-09-19T10:59:18;3.13;;;0.90;;
23826;SDS011;12094;50.822;4.376;2023-09-19T11:01:54;5.78;;;1.27;;
23826;SDS011;12094;50.822;4.376;2023-09-19T11:07:07;10.00;;;1.15;;
23826;SDS011;12094;50.822;4.376;2023-09-19T11:09:51;15.93;;;2.00;;
23826;SDS011;12094;50.822;4.376;2023-09-19T11:17:35;9.48;;;1.70;;
23826;SDS011;12094;50.822;4.376;2023-09-19T11:30:43;8.13;;;1.52;;
23826;SDS011;12094;50.822;4.376;2023-09-19T11:33:21;5.78;;;1.20;;
23826;SDS011;12094;50.822;4.376;2023-09-19T11:36:28;5.75;;;1.52;;
23826;SDS011;12094;50.822;4.376;2023-09-19T11:39:04;8.05;;;1.95;;
23826;SDS011;12094;50.822;4.376;2023-09-19T11:41:42;7.50;;;1.80;;
23826;SDS011;12094;50.822;4.376;2023-09-19T11:46:53;7.20;;;1.40;;
23826;SDS011;12094;50.822;4.376;2023-09-19T11:49:28;8.80;;;1.85;;
23826;SDS011;12094;50.822;4.376;2023-09-19T11:52:02;9.15;;;1.67;;
23826;SDS011;12094;50.822;4.376;2023-09-19T11:54:38;7.40;;;1.42;;
23826;SDS011;12094;50.822;4.376;2023-09-19T11:57:11;9.52;;;1.58;;
23826;SDS011;12094;50.822;4.376;2023-09-19T11:59:46;15.38;;;1.70;;
23826;SDS011;12094;50.822;4.376;2023-09-19T12:02:18;7.43;;;1.77;;
23826;SDS011;12094;50.822;4.376;2023-09-19T12:05:04;4.95;;;1.15;;
23826;SDS011;12094;50.822;4.376;2023-09-19T12:07:32;10.70;;;2.15;;
23826;SDS011;12094;50.822;4.376;2023-09-19T12:10:12;4.53;;;1.13;;
23826;SDS011;12094;50.822;4.376;2023-09-19T12:12:52;7.32;;;1.30;;
23826;SDS011;12094;50.822;4.376;2023-09-19T12:15:23;10.55;;;2.13;;
23826;SDS011;12094;50.822;4.376;2023-09-19T12:17:55;5.95;;;1.20;;
23826;SDS011;12094;50.822;4.376;2023-09-19T12:20:22;10.02;;;1.55;;
23826;SDS011;12094;50.822;4.376;2023-09-19T12:22:50;5.38;;;1.45;;
23826;SDS011;12094;50.822;4.376;2023-09-19T12:27:55;9.52;;;1.20;;
23826;SDS011;12094;50.822;4.376;2023-09-19T12:30:30;3.53;;;1.00;;
23826;SDS011;12094;50.822;4.376;2023-09-19T12:33:00;9.85;;;1.90;;
23826;SDS011;12094;50.822;4.376;2023-09-19T12:35:31;6.10;;;1.50;;
23826;SDS011;12094;50.822;4.376;2023-09-19T12:38:03;3.97;;;0.88;;
23826;SDS011;12094;50.822;4.376;2023-09-19T12:40:32;7.72;;;1.58;;
23826;SDS011;12094;50.822;4.376;2023-09-19T12:43:00;5.75;;;1.40;;
23826;SDS011;12094;50.822;4.376;2023-09-19T12:45:34;5.32;;;1.20;;
23826;SDS011;12094;50.822;4.376;2023-09-19T12:51:16;5.57;;;0.77;;
23826;SDS011;12094;50.822;4.376;2023-09-19T12:53:56;6.40;;;1.40;;
23826;SDS011;12094;50.822;4.376;2023-09-19T12:56:24;4.25;;;1.67;;
23826;SDS011;12094;50.822;4.376;2023-09-19T12:58:58;6.80;;;1.58;;
23826;SDS011;12094;50.822;4.376;2023-09-19T13:01:27;5.85;;;1.60;;
23826;SDS011;12094;50.822;4.376;2023-09-19T13:06:41;11.93;;;1.85;;
23826;SDS011;12094;50.822;4.376;2023-09-19T13:09:10;6.53;;;1.60;;
23826;SDS011;12094;50.822;4.376;2023-09-19T13:11:39;7.07;;;1.00;;
23826;SDS011;12094;50.822;4.376;2023-09-19T13:14:15;9.77;;;1.65;;
23826;SDS011;12094;50.822;4.376;2023-09-19T13:19:37;7.03;;;1.13;;
23826;SDS011;12094;50.822;4.376;2023-09-19T13:25:11;8.40;;;1.35;;
23826;SDS011;12094;50.822;4.376;2023-09-19T13:27:43;4.97;;;1.38;;
23826;SDS011;12094;50.822;4.376;2023-09-19T13:30:12;11.05;;;1.88;;
23826;SDS011;12094;50.822;4.376;2023-09-19T13:32:40;6.38;;;1.25;;
23826;SDS011;12094;50.822;4.376;2023-09-19T13:35:09;5.22;;;1.13;;
23826;SDS011;12094;50.822;4.376;2023-09-19T13:37:38;6.40;;;1.48;;
23826;SDS011;12094;50.822;4.376;2023-09-19T13:40:12;14.93;;;1.90;;
23826;SDS011;12094;50.822;4.376;2023-09-19T13:42:48;16.38;;;1.80;;
23826;SDS011;12094;50.822;4.376;2023-09-19T13:45:19;12.85;;;2.17;;
23826;SDS011;12094;50.822;4.376;2023-09-19T13:47:48;10.55;;;1.95;;
23826;SDS011;12094;50.822;4.376;2023-09-19T13:50:17;10.02;;;1.45;;
23826;SDS011;12094;50.822;4.376;2023-09-19T13:55:20;14.10;;;1.50;;
23826;SDS011;12094;50.822;4.376;2023-09-19T13:57:47;7.07;;;1.80;;
23826;SDS011;12094;50.822;4.376;2023-09-19T14:00:21;6.95;;;1.50;;
23826;SDS011;12094;50.822;4.376;2023-09-19T14:02:49;11.90;;;1.67;;
23826;SDS011;12094;50.822;4.376;2023-09-19T14:05:18;8.13;;;1.92;;
23826;SDS011;12094;50.822;4.376;2023-09-19T14:07:48;8.57;;;1.77;;
23826;SDS011;12094;50.822;4.376;2023-09-19T14:10:18;11.45;;;1.75;;
23826;SDS011;12094;50.822;4.376;2023-09-19T14:12:47;9.55;;;1.77;;
23826;SDS011;12094;50.822;4.376;2023-09-19T14:15:15;8.82;;;1.67;;
23826;SDS011;12094;50.822;4.376;2023-09-19T14:17:43;8.60;;;1.60;;
23826;SDS011;12094;50.822;4.376;2023-09-19T14:20:13;6.32;;;1.67;;
23826;SDS011;12094;50.822;4.376;2023-09-19T14:22:42;6.07;;;1.67;;
23826;SDS011;12094;50.822;4.376;2023-09-19T14:25:09;10.05;;;1.58;;
23826;SDS011;12094;50.822;4.376;2023-09-19T14:27:36;12.27;;;1.88;;
23826;SDS011;12094;50.822;4.376;2023-09-19T14:30:03;7.30;;;1.60;;
23826;SDS011;12094;50.822;4.376;2023-09-19T14:32:34;9.75;;;1.50;;
23826;SDS011;12094;50.822;4.376;2023-09-19T14:35:02;8.15;;;2.13;;
23826;SDS011;12094;50.822;4.376;2023-09-19T14:37:30;7.30;;;1.60;;
23826;SDS011;12094;50.822;4.376;2023-09-19T14:39:57;4.63;;;1.63;;
23826;SDS011;12094;50.822;4.376;2023-09-19T14:42:25;8.65;;;1.70;;
23826;SDS011;12094;50.822;4.376;2023-09-19T14:44:53;10.25;;;2.10;;
23826;SDS011;12094;50.822;4.376;2023-09-19T14:47:21;8.45;;;1.80;;
23826;SDS011;12094;50.822;4.376;2023-09-19T14:49:51;9.13;;;2.28;;
23826;SDS011;12094;50.822;4.376;2023-09-19T14:52:19;7.82;;;1.90;;
23826;SDS011;12094;50.822;4.376;2023-09-19T14:54:46;5.25;;;1.85;;
23826;SDS011;12094;50.822;4.376;2023-09-19T14:57:13;9.40;;;1.85;;
23826;SDS011;12094;50.822;4.376;2023-09-19T14:59:41;13.50;;;2.17;;
23826;SDS011;12094;50.822;4.376;2023-09-19T15:02:08;51.72;;;7.50;;
23826;SDS011;12094;50.822;4.376;2023-09-19T15:04:37;6.25;;;1.90;;
23826;SDS011;12094;50.822;4.376;2023-09-19T15:07:09;7.65;;;1.90;;
23826;SDS011;12094;50.822;4.376;2023-09-19T15:09:37;10.27;;;2.17;;
23826;SDS011;12094;50.822;4.376;2023-09-19T15:12:04;10.32;;;2.42;;
23826;SDS011;12094;50.822;4.376;2023-09-19T15:14:32;12.35;;;2.10;;
23826;SDS011;12094;50.822;4.376;2023-09-19T15:17:03;6.00;;;1.60;;
23826;SDS011;12094;50.822;4.376;2023-09-19T15:19:31;7.00;;;2.07;;
23826;SDS011;12094;50.822;4.376;2023-09-19T15:21:58;6.57;;;1.90;;
23826;SDS011;12094;50.822;4.376;2023-09-19T15:24:26;7.72;;;2.10;;
23826;SDS011;12094;50.822;4.376;2023-09-19T15:26:53;5.45;;;1.63;;
23826;SDS011;12094;50.822;4.376;2023-09-19T15:29:21;8.80;;;2.20;;
23826;SDS011;12094;50.822;4.376;2023-09-19T15:31:49;8.70;;;2.10;;
23826;SDS011;12094;50.822;4.376;2023-09-19T15:34:16;7.93;;;1.50;;
23826;SDS011;12094;50.822;4.376;2023-09-19T15:36:45;9.13;;;1.83;;
23826;SDS011;12094;50.822;4.376;2023-09-19T15:39:15;9.80;;;1.50;;
23826;SDS011;12094;50.822;4.376;2023-09-19T15:41:45;9.63;;;1.92;;
23826;SDS011;12094;50.822;4.376;2023-09-19T15:44:16;11.30;;;1.50;;
23826;SDS011;12094;50.822;4.376;2023-09-19T15:46:48;7.47;;;1.92;;
23826;SDS011;12094;50.822;4.376;2023-09-19T15:49:17;9.50;;;1.75;;
23826;SDS011;12094;50.822;4.376;2023-09-19T15:51:44;6.90;;;1.88;;
23826;SDS011;12094;50.822;4.376;2023-09-19T15:54:14;8.77;;;1.77;;
23826;SDS011;12094;50.822;4.376;2023-09-19T15:56:42;7.43;;;1.60;;
23826;SDS011;12094;50.822;4.376;2023-09-19T15:59:11;8.10;;;1.60;;
23826;SDS011;12094;50.822;4.376;2023-09-19T16:01:39;7.57;;;1.50;;
23826;SDS011;12094;50.822;4.376;2023-09-19T16:04:08;6.57;;;1.73;;